首页
METAR-TAF:

METAR-TAF

机场 :

維也納國際機場

維也納, 奥地利

纬度: 48-07N, 经度: 016-34E, 海拔: 183米

当前天气观测

该预报发布于26分钟前的08:20 UTC
风速11节,风向西北,在西北转西北之间变化
温度 24°C
湿度 61%
气压 1013 hPa
能见度10公里或以上
少量云层高于5000英尺
少量云层高于6000英尺, 塔状积云.
散云层高于8000英尺
多云层高于12000英尺
小阵雨

METAR: LOWW 140820Z 31011KT 280V340 9999 -SHRA FEW050 FEW060TCU SCT080 BKN120 24/16 Q1013 TEMPO SHRA

时间: 10:46 (08:46 UTC)

预报

该预报发布于31分钟前的08:15 UTC
预报有效从14日的 09点(UTC)到 15日的 15点(UTC)
风速10节,风向西转西北
能见度10公里或以上
少量云层高于5000英尺
少量云层高于5000英尺, 塔状积云.
多云层高于10000英尺
短暂存在
从 14日的 09点(UTC)到 14日的 16点(UTC)
风速15节,风向北转西北,有时为25节阵风
能見度: 7000
多云层高于4000英尺
少量云层高于5000英尺, 积雨云.
阵雨
成为
从 14日的 17点(UTC)到 14日的 19点(UTC)
能见度10公里或以上
1500米以下无云,无积雨云
短暂存在
从 14日的 17点(UTC)到 15日的 06点(UTC)
风速6节,风向西转西北
短暂存在
从 15日的 08点(UTC)到 15日的 15点(UTC)
风速15节,风向西北

TAF: LOWW 140815Z 1409/1515 30010KT 9999 FEW050 FEW050TCU BKN100 TX29/1511Z TN19/1502Z TEMPO 1409/1416 33015G25KT 7000 SHRA BKN040 FEW050CB BECMG 1417/1419 CAVOK TEMPO 1417/1506 29006KT TEMPO 1508/1515 32015KT

超过4000个机场的气象观测和天气预报(METAR&TAF报告)。

可查询的气象台以黄色和红色小点在地图上表示。

将鼠标移到小点上方,可查看气象台名称。

然后点击查看天气观测和预报。

如需切换地图:点击带黑十字的绿色按钮放大地图;点击带横线的绿色按钮缩小地图;或者点击绿色箭头查看邻近地区的地图。


METAR-TAF: